Terminal Aerodrome Forecast
Issued by NWS

Current Version | Previous Version | Text Only | Print | Product List | Glossary On
Versions: 1 2 3 4 5 6 7 8 9 10 11 12 13 14 15 16 17 18 19 20 21 22
000
FTUS44 KLZK 231120
TAFLLQ
TAF
KLLQ 231120Z 2312/2412 17005KT P6SM FEW250
      TEMPO 2312/2314 3SM BR SCT002
     FM231800 18011G16KT P6SM FEW250
     FM240000 18008KT P6SM SCT250
     FM240900 19010KT P6SM SCT040 WS020/21045KT=

USA.gov is the U.S. government's official web portal to all federal, state and local government web resources and services.